Nearby METAR Reports

 

KBJC - Broomfield/Jeffc, Colorado, USA
Distance from station: NNW 11mi, 17km
Updated: Tue, 24-Nov-2020 2:45pm MST
NOT Current
Partly cloudy
Partly cloudy
 Wind from calm
Wind: Calm
Temperature: 37°F , 3°C
Dew Point: 19°F , -7°C
Humidity: 48%
Barometer: 29.96 inHg , 1014.6 hPa
Clouds: Partly cloudy
Visibility: 10 miles , 16 km
Cloud details: Partly cloudy 7000 ft
2020/11/24 21:45 KBJC 242145Z 00000KT 10SM SCT070 03/M07 A2996
KBKF - Buckley Angb/Den, Colorado, USA
Distance from station: E 16mi, 25km
Updated: Tue, 24-Nov-2020 2:58pm MST
Partly cloudy
Partly cloudy
 Wind from NNW
Wind: NNW 8 mph , 13 km/h
Temperature: 32°F , 0°C
Wind Chill: 25°F , -4°C
Dew Point: 19°F , -7°C
Humidity: 60%
Barometer: 29.96 inHg , 1014.6 hPa
Clouds: Partly cloudy
Visibility: 10 miles , 16 km
Cloud details: Few Clouds 7000 ft
Few Clouds 12000 ft
Partly cloudy 22000 ft
2020/11/24 21:58 KBKF 242158Z 34007KT 10SM FEW070 FEW120 SCT220 00/M07 A2996 RMK AO2A SLP150 T00001073
 
KAPA - Denver/Arapahoe, Colorado, USA
Distance from station: SE 16mi, 26km
Updated: Tue, 24-Nov-2020 3:53pm MST
Few Clouds
Few Clouds
 Wind from N
Wind: N 6 mph , 9 km/h
Temperature: 34°F , 1°C
Wind Chill: 29°F , -2°C
Dew Point: 19°F , -7°C
Humidity: 56%
Barometer: 29.96 inHg , 1014.6 hPa
Clouds: Few Clouds
Visibility: 10 miles , 16 km
Cloud details: Few Clouds 8000 ft
Few Clouds 12000 ft
Few Clouds 20000 ft
2020/11/24 22:53 KAPA 242253Z 35005KT 10SM FEW080 FEW120 FEW200 01/M07 A2996 RMK AO2 SLP165 T00111072
KEIK - Erie Muni, Colorado, USA
Distance from station: N 18mi, 29km
Updated: Tue, 24-Nov-2020 3:55pm MST
Partly cloudy
Partly cloudy
 Wind from S
Wind: S 3 mph , 6 km/h
Temperature: 39°F , 4°C
Dew Point: 21°F , -6°C
Humidity: 48%
Barometer: 29.97 inHg , 1014.9 hPa
Clouds: Partly cloudy
Visibility: 10 miles , 16 km
Cloud details: Partly cloudy 9000 ft
2020/11/24 22:55 KEIK 242255Z AUTO 18003KT 10SM SCT090 04/M06 A2997 RMK AO2 T00361059
 
KBDU - Boulder Muni, Colorado, USA
Distance from station: NNW 22mi, 35km
Updated: Tue, 24-Nov-2020 3:48pm MST
Partly cloudy
Partly cloudy
 Wind from SW
Wind: SW 6 mph , 9 km/h
Temperature: 36°F , 2°C
Wind Chill: 31°F , -1°C
Dew Point: 23°F , -5°C
Humidity: 60%
Barometer: 29.96 inHg , 1014.6 hPa
Clouds: Partly cloudy
Visibility: 10 miles , 16 km
Cloud details: Partly cloudy 6500 ft
2020/11/24 22:48 KBDU 242248Z AUTO 22005KT 10SM SCT065 02/M05 A2996 RMK AO2
KDEN - Denver (dia), Colorado, USA
Distance from station: ENE 22mi, 35km
Updated: Tue, 24-Nov-2020 3:53pm MST
Few Clouds
Few Clouds
 Wind from WSW
Wind: WSW 6 mph , 9 km/h
Temperature: 34°F , 1°C
Wind Chill: 29°F , -2°C
Dew Point: 21°F , -6°C
Humidity: 60%
Barometer: 29.96 inHg , 1014.6 hPa
Clouds: Few Clouds
Visibility: 10 miles , 16 km
Cloud details: Few Clouds 9000 ft
Few Clouds 15000 ft
Few Clouds 22000 ft
2020/11/24 22:53 KDEN 242253Z 25005KT 10SM FEW090 FEW150 FEW220 01/M06 A2996 RMK AO2 SLP152 T00061061
 
KFTG - Denver F. Range, Colorado, USA
Distance from station: E 26mi, 42km
Updated: Wed, 29-Jan-2020 9:55pm MST
NOT Current
Overcast
Overcast
 Wind from W
Wind: W 7 mph , 11 km/h
Temperature: 30°F , -1°C
Wind Chill: 23°F , -5°C
Dew Point: 28°F , -2°C
Humidity: 93%
Barometer: 30.06 inHg , 1017.9 hPa
Clouds: Overcast
Visibility: 10 miles , 16 km
Cloud details: Partly cloudy 1300 ft
Mostly cloudy 2300 ft
Overcast 6000 ft
2020/01/30 04:55 KFTG 300455Z AUTO 26006KT 10SM SCT013 BKN023 OVC060 M01/M02 A3006 RMK AO2 T10111023
KLMO - Longmont/Vbrand, Colorado, USA
Distance from station: NNW 29mi, 47km
Updated: Tue, 24-Nov-2020 3:55pm MST
Clear
Clear
 Wind from WSW
Wind: WSW 5 mph , 7 km/h
Temperature: 43°F , 6°C
Wind Chill: 40°F , 4°C
Dew Point: 21°F , -6°C
Humidity: 42%
Barometer: 29.98 inHg , 1015.2 hPa
Clouds: Clear
Visibility: 10 miles , 16 km
2020/11/24 22:55 KLMO 242255Z AUTO 25004KT 10SM CLR 06/M06 A2998 RMK AO2 T00601057
 
K0CO - Berthoud Pass, Colorado, USA
Distance from station: W 39mi, 62km
Updated: Tue, 24-Nov-2020 3:55pm MST
Overcast
Overcast
 Wind from NNW
Wind: NNW 22 mph , 35 km/h, Gust: 33 mph , 54 km/h
Temperature: 10°F , -12°C
Wind Chill: -10°F , -23°C
Dew Point: -8°F , -22°C
Humidity: 44%
Barometer: 29.93 inHg , 1013.5 hPa
Clouds: Overcast
Cloud details: Overcast 100 ft
2020/11/24 22:55 K0CO 242255Z AUTO 33019G29KT OVC001 M12/M22 A2993 RMK AO2 PWINO
KMNH - Monument/Elbert, Colorado, USA
Distance from station: SSE 43mi, 68km
Updated: Tue, 24-Nov-2020 3:55pm MST
Clear
Clear
 Wind from WNW
Wind: WNW 13 mph , 20 km/h
Temperature: 27°F , -3°C
Wind Chill: 16°F , -9°C
Dew Point: 18°F , -8°C
Humidity: 69%
Barometer: 29.96 inHg , 1014.6 hPa
Clouds: Clear
Visibility: 10 miles , 16 km
2020/11/24 22:55 KMNH 242255Z AUTO 30011KT 10SM CLR M03/M08 A2996 RMK AO2
 
KFNL - Ft Collins/Lovel, Colorado, USA
Distance from station: N 48mi, 78km
Updated: Tue, 24-Nov-2020 3:56pm MST
Few Clouds
Few Clouds
 Wind from SSW
Wind: SSW 3 mph , 6 km/h
Temperature: 41°F , 5°C
Dew Point: 23°F , -5°C
Humidity: 49%
Barometer: 29.96 inHg , 1014.6 hPa
Clouds: Few Clouds
Visibility: 10 miles , 16 km
Cloud details: Few Clouds 6500 ft
2020/11/24 22:56 KFNL 242256Z 20003KT 10SM FEW065 05/M05 A2996 RMK AO2 SLP149 T00501050